Time;durP1;ratioP1;P1;durP2;ratioP2;P2;SDS_P1;SDS_P2;PMS_P1;PMS_P2;Temp;Humidity;BMP_temperature;BMP_pressure;BME280_temperature;BME280_humidity;BME280_pressure;Samples;Min_cycle;Max_cycle;Signal;HPM_P1;HPM_P2
2022/12/06 00:01:34;;;;;;;7.78;3.28;;;;;;;4.48;100.00;98509.97;5000921;28;20777;-67
2022/12/06 00:04:03;;;;;;;6.33;3.20;;;;;;;4.57;100.00;98501.59;4995000;28;20477;-65
2022/12/06 00:06:30;;;;;;;5.55;2.97;;;;;;;4.67;100.00;98496.59;5019933;28;20068;-63
2022/12/06 00:08:57;;;;;;;5.07;2.75;;;;;;;4.34;100.00;98449.16;4998919;28;20165;-63
2022/12/06 00:11:25;;;;;;;5.47;2.63;;;;;;;4.27;100.00;98454.84;4990367;28;20164;-63
2022/12/06 00:13:55;;;;;;;5.35;2.28;;;;;;;4.55;100.00;98497.50;5006904;28;20056;-63
2022/12/06 00:16:22;;;;;;;6.18;3.05;;;;;;;4.54;100.00;98499.22;4990722;28;20041;-64
2022/12/06 00:18:47;;;;;;;4.80;2.28;;;;;;;4.35;100.00;98486.84;5004812;28;20838;-59
2022/12/06 00:21:17;;;;;;;5.72;2.15;;;;;;;4.35;100.00;98504.06;5004230;28;20076;-66
2022/12/06 00:23:48;;;;;;;6.53;2.00;;;;;;;4.30;100.00;98490.66;4998850;28;20038;-65
2022/12/06 00:26:14;;;;;;;4.57;2.05;;;;;;;4.39;100.00;98502.91;5016154;28;20145;-61
2022/12/06 00:28:40;;;;;;;4.75;2.00;;;;;;;4.22;100.00;98486.88;5002575;28;20049;-65
2022/12/06 00:31:08;;;;;;;4.55;1.67;;;;;;;4.14;100.00;98484.00;5000956;28;20026;-64
2022/12/06 00:33:35;;;;;;;4.28;1.75;;;;;;;4.41;100.00;98491.53;4980549;28;20120;-66
2022/12/06 00:36:03;;;;;;;4.78;1.85;;;;;;;4.38;100.00;98478.91;5003647;28;20118;-65
2022/12/06 00:38:29;;;;;;;5.03;2.05;;;;;;;4.33;100.00;98475.03;4985886;28;20401;-67
2022/12/06 00:41:03;;;;;;;5.15;2.22;;;;;;;4.34;100.00;98480.03;5013791;28;20026;-67
2022/12/06 00:43:29;;;;;;;4.43;1.80;;;;;;;4.21;100.00;98480.06;4996858;28;20108;-64
2022/12/06 00:45:55;;;;;;;4.40;2.03;;;;;;;4.15;100.00;98472.00;5018684;28;20029;-63
2022/12/06 00:48:21;;;;;;;4.18;1.73;;;;;;;4.28;100.00;98479.66;5001130;28;20076;-59
2022/12/06 00:50:46;;;;;;;4.47;2.05;;;;;;;4.22;100.00;98474.00;5018401;28;20022;-62
2022/12/06 00:53:12;;;;;;;4.40;1.80;;;;;;;4.20;100.00;98469.91;5002576;28;20037;-61
2022/12/06 00:55:37;;;;;;;4.03;1.40;;;;;;;3.87;100.00;98430.19;5000633;28;20661;-66
2022/12/06 00:58:03;;;;;;;3.83;1.50;;;;;;;3.87;100.00;98439.63;5005469;28;20391;-67
2022/12/06 01:00:28;;;;;;;4.05;1.70;;;;;;;4.18;100.00;98482.03;5003400;28;20042;-64
2022/12/06 01:02:54;;;;;;;3.88;1.67;;;;;;;4.13;100.00;98476.41;4999495;28;20034;-68
2022/12/06 01:05:19;;;;;;;4.32;1.88;;;;;;;4.13;100.00;98461.78;5003940;28;20026;-63
2022/12/06 01:07:45;;;;;;;3.97;1.67;;;;;;;4.26;100.00;98478.97;5003742;28;20742;-63
2022/12/06 01:10:10;;;;;;;3.75;1.45;;;;;;;4.30;100.00;98470.09;5006135;28;20137;-63
2022/12/06 01:12:36;;;;;;;3.58;1.30;;;;;;;4.20;100.00;98457.06;5011096;28;20032;-66
2022/12/06 01:15:01;;;;;;;3.75;1.40;;;;;;;4.22;100.00;98460.34;5008909;28;20088;-63
2022/12/06 01:17:26;;;;;;;3.83;1.58;;;;;;;3.90;100.00;98413.69;5000169;28;20687;-62
2022/12/06 01:19:52;;;;;;;3.22;1.15;;;;;;;4.24;100.00;98459.28;5002635;28;20536;-67
2022/12/06 01:22:17;;;;;;;3.95;1.52;;;;;;;4.18;100.00;98462.31;5002306;28;20092;-61
2022/12/06 01:24:43;;;;;;;4.07;1.40;;;;;;;4.14;100.00;98465.19;5001065;28;20802;-67
2022/12/06 01:27:08;;;;;;;3.65;1.63;;;;;;;4.11;100.00;98457.69;5000633;28;20084;-66
2022/12/06 01:29:33;;;;;;;3.92;1.80;;;;;;;3.92;100.00;98453.81;4985413;28;20037;-66
2022/12/06 01:31:59;;;;;;;4.45;1.50;;;;;;;4.07;100.00;98461.38;5014880;28;20038;-67
2022/12/06 01:34:24;;;;;;;4.22;1.85;;;;;;;4.06;100.00;98460.56;5000838;28;20627;-65
2022/12/06 01:36:49;;;;;;;4.20;1.73;;;;;;;4.01;100.00;98462.66;5001924;28;20038;-60
2022/12/06 01:39:15;;;;;;;4.20;2.05;;;;;;;3.78;100.00;98429.06;5003387;28;20153;-64
2022/12/06 01:41:40;;;;;;;4.47;1.90;;;;;;;4.11;100.00;98465.41;5001432;28;20091;-64
2022/12/06 01:44:26;;;;;;;4.25;2.05;;;;;;;4.01;100.00;98460.88;5022085;28;20040;-64
2022/12/06 01:46:52;;;;;;;6.43;1.75;;;;;;;4.01;100.00;98470.38;4998293;28;20068;-64
2022/12/06 01:49:20;;;;;;;4.80;2.00;;;;;;;3.98;100.00;98468.84;5019144;28;20030;-65
2022/12/06 01:51:59;;;;;;;4.20;1.90;;;;;;;3.98;100.00;98473.13;4984088;28;20803;-62
2022/12/06 01:54:24;;;;;;;4.43;2.08;;;;;;;3.87;100.00;98457.63;4996501;28;20145;-65
2022/12/06 01:56:51;;;;;;;5.47;1.88;;;;;;;3.80;100.00;98457.25;5002336;28;20643;-62
2022/12/06 01:59:18;;;;;;;4.38;1.70;;;;;;;3.92;100.00;98468.44;4986206;28;20196;-65
2022/12/06 02:01:44;;;;;;;4.10;1.77;;;;;;;3.95;100.00;98465.66;4993030;28;20034;-64
2022/12/06 02:04:10;;;;;;;5.25;1.90;;;;;;;4.00;100.00;98473.88;4999948;28;20085;-62
2022/12/06 02:06:36;;;;;;;3.90;1.80;;;;;;;3.97;100.00;98453.50;4996411;28;20030;-69
2022/12/06 02:09:05;;;;;;;5.25;1.50;;;;;;;4.06;100.00;98464.91;4983472;28;20441;-60
2022/12/06 02:11:30;;;;;;;4.15;1.80;;;;;;;4.04;100.00;98470.16;4994453;28;20133;-62
2022/12/06 02:13:56;;;;;;;4.45;1.45;;;;;;;3.82;100.00;98424.53;5003853;28;20426;-59
2022/12/06 02:16:28;;;;;;;3.80;1.50;;;;;;;4.12;100.00;98474.75;4998115;28;20048;-67
2022/12/06 02:19:12;;;;;;;3.80;1.58;;;;;;;4.14;100.00;98468.56;4983148;28;20044;-64
2022/12/06 02:21:52;;;;;;;3.97;1.60;;;;;;;4.08;100.00;98470.78;4997118;28;20026;-61
2022/12/06 02:24:27;;;;;;;3.65;1.10;;;;;;;4.06;100.00;98470.06;4999056;28;20029;-65
2022/12/06 02:27:04;;;;;;;3.50;1.20;;;;;;;4.03;100.00;98466.78;4997094;28;20115;-68
2022/12/06 02:29:49;;;;;;;3.38;1.13;;;;;;;4.08;100.00;98468.19;4998067;28;20041;-62
2022/12/06 02:32:30;;;;;;;3.50;1.27;;;;;;;4.03;100.00;98456.47;5003632;28;20076;-66
2022/12/06 02:35:18;;;;;;;3.10;1.10;;;;;;;4.00;100.00;98464.41;5004143;28;20604;-62
2022/12/06 02:37:49;;;;;;;4.13;1.38;;;;;;;4.07;100.00;98464.81;5017241;28;20084;-67
2022/12/06 02:40:31;;;;;;;4.30;1.40;;;;;;;4.00;100.00;98461.00;4990619;28;20033;-61
2022/12/06 02:43:01;;;;;;;3.78;1.35;;;;;;;3.73;100.00;98415.69;4985668;28;20030;-63
2022/12/06 02:45:31;;;;;;;;;;;;;;;3.96;100.00;98454.41;5004068;28;20862;-59
2022/12/06 02:48:00;;;;;;;3.90;1.25;;;;;;;3.80;100.00;98454.69;5018872;28;19927;-62
2022/12/06 02:50:31;;;;;;;3.25;1.10;;;;;;;3.80;100.00;98452.09;5002857;28;20050;-62
2022/12/06 02:52:59;;;;;;;3.03;1.00;;;;;;;3.82;100.00;98443.34;5016146;28;20504;-64
2022/12/06 02:55:25;;;;;;;2.78;0.90;;;;;;;3.93;100.00;98450.31;4989799;28;20492;-63
2022/12/06 02:57:52;;;;;;;2.97;1.05;;;;;;;3.93;100.00;98455.47;5019525;28;20030;-60
2022/12/06 03:00:27;;;;;;;2.85;1.10;;;;;;;4.04;100.00;98459.88;4984600;28;20724;-63
2022/12/06 03:03:03;;;;;;;3.13;0.90;;;;;;;4.10;100.00;98459.44;5015019;28;20492;-66
2022/12/06 03:05:35;;;;;;;3.08;1.08;;;;;;;3.99;100.00;98452.44;5017250;28;20029;-65
2022/12/06 03:08:06;;;;;;;4.00;1.10;;;;;;;3.89;100.00;98448.06;4999953;28;20097;-66
2022/12/06 03:10:52;;;;;;;3.15;1.08;;;;;;;3.86;100.00;98454.25;5002257;28;20033;-68
2022/12/06 03:13:27;;;;;;;2.92;1.08;;;;;;;3.79;100.00;98446.13;5016501;28;20631;-60
2022/12/06 03:16:13;;;;;;;2.78;1.00;;;;;;;3.77;100.00;98437.69;5014613;28;20476;-63
2022/12/06 03:18:59;;;;;;;3.08;0.95;;;;;;;3.85;100.00;98456.00;5011026;28;20065;-67
2022/12/06 03:21:29;;;;;;;3.15;0.90;;;;;;;3.81;100.00;98448.59;5002851;28;20053;-63
2022/12/06 03:23:55;;;;;;;3.03;1.17;;;;;;;3.89;100.00;98450.63;4983507;28;20046;-67
2022/12/06 03:26:25;;;;;;;3.03;1.00;;;;;;;3.77;100.00;98447.97;5017886;28;20684;-65
2022/12/06 03:28:52;;;;;;;4.68;1.17;;;;;;;3.81;100.00;98440.88;4980972;28;20149;-65
2022/12/06 03:31:21;;;;;;;2.85;1.00;;;;;;;3.83;100.00;98436.44;4983389;28;20481;-65
2022/12/06 03:33:52;;;;;;;2.85;0.98;;;;;;;3.57;100.00;98433.09;4997361;28;20030;-62
2022/12/06 03:36:18;;;;;;;3.60;1.20;;;;;;;3.57;100.00;98453.66;5015879;28;20072;-63
2022/12/06 03:38:56;;;;;;;3.00;1.00;;;;;;;3.50;100.00;98444.72;5015921;28;20515;-67
2022/12/06 03:41:26;;;;;;;3.95;1.05;;;;;;;3.47;100.00;98448.34;5015565;28;21502;-64
2022/12/06 03:43:51;;;;;;;2.40;0.90;;;;;;;3.52;100.00;98446.25;5017876;28;20145;-62
2022/12/06 03:46:20;;;;;;;3.40;1.30;;;;;;;3.46;100.00;98449.25;5003196;28;20733;-61
2022/12/06 03:48:49;;;;;;;3.27;1.23;;;;;;;3.47;100.00;98443.19;4980950;28;20026;-65
2022/12/06 03:51:25;;;;;;;3.55;1.30;;;;;;;3.57;100.00;98451.91;5004990;28;20313;-62
2022/12/06 03:53:56;;;;;;;2.33;1.00;;;;;;;3.23;100.00;98389.97;5022488;28;20044;-65
2022/12/06 03:56:22;;;;;;;2.72;1.05;;;;;;;3.19;100.00;98401.34;4984279;28;20113;-68
2022/12/06 03:58:48;;;;;;;3.22;1.10;;;;;;;3.52;100.00;98448.00;5017657;28;20136;-62
2022/12/06 04:01:13;;;;;;;3.50;1.25;;;;;;;3.49;100.00;98449.06;5017200;28;20715;-63
2022/12/06 04:03:38;;;;;;;3.10;1.10;;;;;;;3.56;100.00;98450.28;5000965;28;20034;-64
2022/12/06 04:06:05;;;;;;;2.97;1.02;;;;;;;3.57;100.00;98453.66;4995955;28;20032;-66
2022/12/06 04:08:31;;;;;;;3.15;1.25;;;;;;;3.54;100.00;98441.84;4995617;28;20809;-64
2022/12/06 04:10:56;;;;;;;4.25;1.50;;;;;;;3.52;100.00;98437.72;5002866;28;20026;-61
2022/12/06 04:13:22;;;;;;;3.78;1.40;;;;;;;3.33;100.00;98404.75;5003331;28;20041;-64
2022/12/06 04:15:48;;;;;;;2.90;1.10;;;;;;;3.26;100.00;98389.72;4998128;28;20156;-62
2022/12/06 04:18:14;;;;;;;3.45;1.38;;;;;;;3.41;100.00;98411.03;5000844;28;20730;-64
2022/12/06 04:23:24;;;;;;;4.55;1.23;;;;;;;3.42;100.00;98433.22;4996630;28;20091;-63
2022/12/06 04:25:49;;;;;;;4.05;1.38;;;;;;;3.32;100.00;98429.59;5012711;28;20034;-60
2022/12/06 04:39:11;;;;;;;4.03;1.20;;;;;;;3.36;100.00;98420.78;5000863;28;20045;-63
2022/12/06 04:44:20;;;;;;;2.65;1.10;;;;;;;3.36;100.00;98407.94;5000920;28;20064;-63
2022/12/06 04:46:45;;;;;;;3.42;1.10;;;;;;;3.41;100.00;98412.75;5018819;28;20500;-64
2022/12/06 04:49:11;;;;;;;2.35;0.90;;;;;;;3.34;100.00;98409.78;4999746;28;20033;-64
2022/12/06 04:51:36;;;;;;;3.88;1.38;;;;;;;3.33;100.00;98426.13;5002368;28;20137;-62
2022/12/06 04:54:02;;;;;;;3.03;1.13;;;;;;;3.29;100.00;98411.84;5002723;28;20033;-60
2022/12/06 04:56:27;;;;;;;2.55;0.93;;;;;;;3.08;100.00;98378.13;5001645;28;20400;-61
2022/12/06 04:58:53;;;;;;;3.13;0.90;;;;;;;3.33;100.00;98418.41;4997937;28;20468;-65
2022/12/06 05:01:18;;;;;;;3.53;1.10;;;;;;;3.13;100.00;98381.22;5001857;28;20022;-63
2022/12/06 05:03:43;;;;;;;2.17;0.80;;;;;;;3.27;100.00;98424.78;4996575;28;20037;-67
2022/12/06 05:06:09;;;;;;;2.72;0.90;;;;;;;3.12;100.00;98402.72;5012731;28;20053;-67
2022/12/06 05:08:35;;;;;;;2.28;0.80;;;;;;;3.25;100.00;98415.56;4993821;28;20129;-66
2022/12/06 05:11:00;;;;;;;2.15;0.80;;;;;;;3.25;100.00;98411.22;5017432;28;20064;-63
2022/12/06 05:13:26;;;;;;;2.55;0.90;;;;;;;3.28;100.00;98410.19;4998917;28;20127;-62
2022/12/06 05:15:54;;;;;;;2.88;1.00;;;;;;;3.28;100.00;98423.03;5013387;28;20112;-64
2022/12/06 05:18:19;;;;;;;2.83;0.80;;;;;;;3.20;100.00;98386.78;4977230;28;20128;-64
2022/12/06 05:20:45;;;;;;;2.42;0.90;;;;;;;3.27;100.00;98406.00;5014078;28;20520;-64
2022/12/06 05:23:10;;;;;;;3.15;1.00;;;;;;;3.26;100.00;98415.44;5014114;28;20037;-60
2022/12/06 05:25:36;;;;;;;2.42;0.75;;;;;;;3.24;100.00;98417.28;5005293;28;20036;-61
2022/12/06 05:28:01;;;;;;;3.20;0.98;;;;;;;2.97;100.00;98363.44;5000168;28;21154;-65
2022/12/06 05:30:26;;;;;;;2.78;0.93;;;;;;;3.22;100.00;98402.91;4996529;28;20033;-62
2022/12/06 05:32:52;;;;;;;3.10;0.93;;;;;;;2.96;100.00;98364.38;5011332;28;20125;-64
2022/12/06 05:35:17;;;;;;;2.47;0.90;;;;;;;3.18;100.00;98409.19;5016032;28;20033;-63
2022/12/06 05:37:42;;;;;;;2.38;0.95;;;;;;;3.03;100.00;98380.19;4997015;28;20125;-68
2022/12/06 05:40:08;;;;;;;1.85;0.73;;;;;;;3.14;100.00;98411.13;4997440;28;20572;-67
2022/12/06 05:42:34;;;;;;;3.35;0.90;;;;;;;3.25;100.00;98415.56;4989038;28;20034;-65
2022/12/06 05:44:59;;;;;;;2.92;1.10;;;;;;;3.21;100.00;98414.94;5010853;28;20034;-65
2022/12/06 05:47:24;;;;;;;3.10;1.20;;;;;;;3.25;100.00;98418.94;5014891;28;20046;-63
2022/12/06 05:49:50;;;;;;;4.13;1.10;;;;;;;3.16;100.00;98421.28;4999070;28;20022;-60
2022/12/06 05:52:16;;;;;;;3.22;1.17;;;;;;;3.19;100.00;98409.06;4999812;28;20064;-62
2022/12/06 05:54:41;;;;;;;3.33;1.27;;;;;;;2.91;100.00;98371.56;5012457;28;20026;-62
2022/12/06 05:57:06;;;;;;;3.25;1.30;;;;;;;3.01;100.00;98382.03;4996968;28;20038;-63
2022/12/06 05:59:32;;;;;;;2.80;0.93;;;;;;;3.18;100.00;98420.28;4993354;28;20030;-62
2022/12/06 06:01:57;;;;;;;2.65;1.10;;;;;;;3.26;100.00;98423.13;4997013;28;20764;-61
2022/12/06 06:04:23;;;;;;;3.50;1.33;;;;;;;3.25;100.00;98421.50;5013087;28;20830;-67
2022/12/06 06:06:48;;;;;;;4.03;1.30;;;;;;;3.21;100.00;98427.78;5009183;28;20029;-63
2022/12/06 06:09:14;;;;;;;3.47;1.33;;;;;;;3.23;100.00;98422.53;5004101;28;20033;-70
2022/12/06 06:11:39;;;;;;;3.80;1.50;;;;;;;3.22;100.00;98426.84;5003805;28;20537;-66
2022/12/06 06:14:04;;;;;;;3.67;1.40;;;;;;;3.24;100.00;98426.75;5002881;28;20029;-71
2022/12/06 06:16:31;;;;;;;2.90;1.27;;;;;;;3.06;100.00;98385.94;5001766;28;20040;-63
2022/12/06 06:18:57;;;;;;;3.53;1.30;;;;;;;3.23;100.00;98415.66;5003039;28;20021;-60
2022/12/06 06:21:22;;;;;;;3.70;1.30;;;;;;;3.22;100.00;98419.13;4994789;28;20042;-64
2022/12/06 06:23:47;;;;;;;3.97;1.48;;;;;;;3.32;100.00;98426.22;5002341;28;20107;-64
2022/12/06 06:26:13;;;;;;;3.83;1.40;;;;;;;3.33;100.00;98426.13;5024153;28;20140;-64
2022/12/06 06:28:38;;;;;;;3.47;1.35;;;;;;;3.31;100.00;98425.41;4997412;28;20041;-62
2022/12/06 06:31:05;;;;;;;4.10;1.75;;;;;;;3.35;100.00;98431.97;4985035;28;20044;-66
2022/12/06 06:33:31;;;;;;;3.70;1.52;;;;;;;3.42;100.00;98432.41;4999854;28;20161;-65
2022/12/06 06:35:57;;;;;;;4.13;1.75;;;;;;;3.38;100.00;98430.97;5005689;28;20050;-61
2022/12/06 06:38:22;;;;;;;4.30;1.50;;;;;;;3.37;100.00;98437.84;5000602;28;20057;-65
2022/12/06 06:40:47;;;;;;;4.38;1.70;;;;;;;3.40;100.00;98431.69;5001535;28;20777;-63
2022/12/06 06:43:19;;;;;;;3.90;1.80;;;;;;;3.29;100.00;98427.25;4995672;28;20840;-63
2022/12/06 06:45:55;;;;;;;4.78;1.65;;;;;;;3.30;100.00;98433.22;5012304;28;20887;-64
2022/12/06 06:48:22;;;;;;;6.63;1.67;;;;;;;3.24;100.00;98437.84;5011758;28;20464;-64
2022/12/06 06:50:47;;;;;;;4.97;1.77;;;;;;;3.20;100.00;98427.88;4984754;28;20057;-66
2022/12/06 06:53:13;;;;;;;4.38;1.80;;;;;;;3.33;100.00;98433.84;5005980;28;20441;-64
2022/12/06 06:55:38;;;;;;;4.35;1.52;;;;;;;3.33;100.00;98438.97;5003445;28;20120;-61
2022/12/06 06:58:04;;;;;;;3.70;1.23;;;;;;;3.32;100.00;98439.88;4981158;28;20521;-67
2022/12/06 07:00:31;;;;;;;3.30;1.10;;;;;;;3.41;100.00;98447.00;5022959;28;20032;-61
2022/12/06 07:02:56;;;;;;;3.28;1.27;;;;;;;3.43;100.00;98446.88;5001011;28;20032;-62
2022/12/06 07:05:22;;;;;;;3.60;1.60;;;;;;;3.41;100.00;98441.03;5005700;28;20400;-63
2022/12/06 07:07:48;;;;;;;3.92;1.50;;;;;;;3.42;100.00;98437.53;5000537;28;20141;-63
2022/12/06 07:10:13;;;;;;;3.38;1.30;;;;;;;3.47;100.00;98443.19;4999394;28;20030;-64
2022/12/06 07:12:38;;;;;;;3.78;1.55;;;;;;;3.46;100.00;98444.94;5005618;28;20087;-62
2022/12/06 07:15:05;;;;;;;3.75;1.58;;;;;;;3.20;100.00;98415.84;5004546;28;20069;-65
2022/12/06 07:17:30;;;;;;;4.20;1.33;;;;;;;3.41;100.00;98448.75;4980281;28;20026;-60
2022/12/06 07:19:56;;;;;;;3.53;1.33;;;;;;;3.36;100.00;98441.34;5003116;28;20040;-63
2022/12/06 07:22:21;;;;;;;2.95;1.08;;;;;;;3.39;100.00;98438.56;5004229;28;20042;-63
2022/12/06 07:24:46;;;;;;;3.42;1.23;;;;;;;3.25;100.00;98402.72;5004043;28;20041;-62
2022/12/06 07:27:12;;;;;;;3.30;1.10;;;;;;;3.49;100.00;98454.19;5023838;28;20128;-65
2022/12/06 07:29:37;;;;;;;3.45;1.30;;;;;;;3.52;100.00;98453.97;4984863;28;20143;-62
2022/12/06 07:32:03;;;;;;;4.10;1.40;;;;;;;3.45;100.00;98445.88;5003055;28;20034;-63
2022/12/06 07:34:29;;;;;;;3.42;1.20;;;;;;;3.18;100.00;98398.91;5007070;28;20108;-62
2022/12/06 07:36:54;;;;;;;4.03;1.27;;;;;;;3.49;100.00;98454.19;5004364;28;20025;-64
2022/12/06 07:39:20;;;;;;;2.58;0.90;;;;;;;3.42;100.00;98445.25;5021458;28;20435;-64
2022/12/06 07:47:13;;;;;;;3.30;1.13;;;;;;;3.60;100.00;98461.19;5005828;28;20043;-62
2022/12/06 07:49:38;;;;;;;3.20;1.27;;;;;;;3.63;100.00;98455.81;5016772;28;20034;-65
2022/12/06 07:52:04;;;;;;;2.80;1.10;;;;;;;3.60;100.00;98459.44;5006403;28;20549;-67
2022/12/06 07:54:29;;;;;;;2.38;0.90;;;;;;;3.16;100.00;98380.19;4998352;28;20032;-63
2022/12/06 07:56:57;;;;;;;3.15;1.00;;;;;;;3.58;100.00;98471.56;5000724;28;20445;-64
2022/12/06 07:59:24;;;;;;;3.13;1.25;;;;;;;3.50;100.00;98460.97;5015729;28;20125;-65
2022/12/06 08:01:51;;;;;;;3.17;1.00;;;;;;;3.56;100.00;98454.59;4976641;28;20049;-64
2022/12/06 08:04:17;;;;;;;3.05;1.05;;;;;;;3.48;100.00;98452.53;5003571;28;20045;-63
2022/12/06 08:06:42;;;;;;;2.88;0.98;;;;;;;3.49;100.00;98450.78;5001516;28;20036;-65
2022/12/06 08:09:08;;;;;;;3.60;1.08;;;;;;;3.54;100.00;98457.28;5002294;28;20067;-65
2022/12/06 08:11:34;;;;;;;2.65;1.10;;;;;;;3.45;100.00;98455.34;5002411;28;20705;-64
2022/12/06 08:13:59;;;;;;;2.97;1.10;;;;;;;3.20;100.00;98415.84;4977842;28;20366;-67
2022/12/06 08:16:24;;;;;;;3.05;1.10;;;;;;;3.46;100.00;98449.25;5003809;28;20037;-64
2022/12/06 08:18:51;;;;;;;2.90;1.02;;;;;;;3.44;100.00;98444.22;5002953;28;20085;-61
2022/12/06 08:21:17;;;;;;;3.00;1.00;;;;;;;3.52;100.00;98442.88;5006425;28;20029;-60
2022/12/06 08:23:42;;;;;;;3.75;1.45;;;;;;;3.39;100.00;98446.25;5000247;28;20028;-62
2022/12/06 08:26:12;;;;;;;2.83;1.20;;;;;;;3.33;100.00;98443.31;5020299;28;20037;-62
2022/12/06 08:28:38;;;;;;;3.60;1.17;;;;;;;3.38;100.00;98451.53;4983822;28;20065;-67
2022/12/06 08:31:06;;;;;;;3.28;1.20;;;;;;;3.34;100.00;98450.91;4984337;28;20078;-62
2022/12/06 08:33:32;;;;;;;2.67;1.00;;;;;;;3.25;100.00;98447.22;5012390;28;20034;-67
2022/12/06 08:35:58;;;;;;;2.90;1.10;;;;;;;3.26;100.00;98458.31;4998735;28;20034;-66
2022/12/06 08:38:23;;;;;;;3.05;1.10;;;;;;;2.96;100.00;98395.19;4999291;28;20100;-61
2022/12/06 08:40:49;;;;;;;4.97;1.20;;;;;;;3.43;100.00;98464.88;5003472;28;20389;-62
2022/12/06 08:43:14;;;;;;;2.30;0.77;;;;;;;3.56;100.00;98462.28;5009045;28;20412;-68
2022/12/06 08:45:40;;;;;;;2.97;1.00;;;;;;;3.46;100.00;98441.53;5000556;28;20057;-63
2022/12/06 08:48:05;;;;;;;5.32;1.70;;;;;;;3.55;100.00;98453.78;4997703;28;20033;-67
2022/12/06 08:50:31;;;;;;;4.00;1.30;;;;;;;3.71;96.40;98453.56;5001908;28;20353;-66
2022/12/06 08:52:56;;;;;;;2.38;0.73;;;;;;;3.92;92.99;98455.56;5002909;28;20088;-63
2022/12/06 08:55:21;;;;;;;2.60;0.90;;;;;;;3.94;93.19;98458.84;5005469;28;20067;-63
2022/12/06 08:57:47;;;;;;;2.30;0.80;;;;;;;4.09;91.96;98464.69;4991833;28;20448;-64
2022/12/06 09:00:13;;;;;;;2.63;0.80;;;;;;;3.76;91.76;98409.50;5002633;28;20649;-65
2022/12/06 09:02:39;;;;;;;2.47;0.90;;;;;;;3.93;92.74;98445.19;5001085;28;20051;-64
2022/12/06 09:05:05;;;;;;;2.78;0.90;;;;;;;3.72;94.20;98414.03;4998479;28;20124;-64
2022/12/06 09:07:30;;;;;;;3.10;1.00;;;;;;;4.00;95.88;98461.00;5020943;28;20437;-60
2022/12/06 09:09:55;;;;;;;2.30;0.88;;;;;;;3.98;97.17;98463.69;5014259;28;20068;-64
2022/12/06 09:12:21;;;;;;;3.03;0.80;;;;;;;3.95;96.58;98466.47;5003714;28;20032;-63
2022/12/06 09:14:46;;;;;;;2.50;0.90;;;;;;;3.69;96.93;98421.13;4999614;28;20718;-65
2022/12/06 09:17:11;;;;;;;3.10;1.10;;;;;;;3.91;99.47;98462.47;5016615;28;20056;-64
2022/12/06 09:19:37;;;;;;;3.75;1.10;;;;;;;3.91;99.11;98471.94;4987046;28;20069;-63
2022/12/06 09:22:02;;;;;;;3.03;1.10;;;;;;;3.89;98.31;98460.91;5001981;28;20045;-60
2022/12/06 09:24:28;;;;;;;4.30;1.58;;;;;;;3.92;97.85;98464.09;4997207;28;20041;-62
2022/12/06 09:26:53;;;;;;;3.83;1.33;;;;;;;3.81;98.16;98475.13;5004930;28;20108;-64
2022/12/06 09:29:19;;;;;;;4.40;1.17;;;;;;;3.73;96.67;98463.75;4998245;28;20504;-62
2022/12/06 09:31:44;;;;;;;5.43;1.10;;;;;;;3.71;97.14;98463.03;5001493;28;20022;-65
2022/12/06 09:34:11;;;;;;;3.60;1.10;;;;;;;3.64;99.38;98429.19;5008695;28;20115;-61
2022/12/06 09:36:40;;;;;;;3.65;1.17;;;;;;;3.93;100.00;98455.47;5000993;28;20097;-62
2022/12/06 09:39:34;;;;;;;3.20;1.30;;;;;;;4.00;99.46;98472.13;4982552;28;20076;-60
2022/12/06 09:42:02;;;;;;;3.75;1.10;;;;;;;4.10;99.82;98472.28;4984820;28;20528;-59
2022/12/06 09:44:52;;;;;;;3.95;1.30;;;;;;;3.98;100.00;98471.41;4997440;28;20381;-62
2022/12/06 09:47:36;;;;;;;4.30;1.65;;;;;;;4.05;99.54;98458.91;5002208;28;20061;-61
2022/12/06 09:50:16;;;;;;;3.42;1.17;;;;;;;4.14;99.53;98460.03;5006723;28;20034;-61
2022/12/06 09:53:00;;;;;;;4.30;1.48;;;;;;;4.16;100.00;98458.16;5000335;28;20119;-62
2022/12/06 09:55:46;;;;;;;4.03;1.27;;;;;;;4.27;100.00;98452.28;5004387;28;20026;-60
2022/12/06 09:58:24;;;;;;;5.30;1.60;;;;;;;4.23;97.48;98449.09;5018046;28;20038;-64
2022/12/06 10:01:08;;;;;;;3.83;1.30;;;;;;;4.35;97.59;98447.41;4999618;28;20041;-63
2022/12/06 10:03:46;;;;;;;4.18;1.50;;;;;;;4.39;98.66;98444.50;5022145;28;20048;-66
2022/12/06 10:06:14;;;;;;;4.22;1.70;;;;;;;4.51;99.32;98435.09;4996559;28;20810;-61
2022/12/06 10:09:01;;;;;;;4.78;2.10;;;;;;;4.39;99.60;98398.16;4985826;28;20593;-65
2022/12/06 10:12:02;;;;;;;6.55;2.10;;;;;;;4.58;97.78;98413.13;4994775;28;20025;-62
2022/12/06 10:15:08;;;;;;;5.07;2.30;;;;;;;4.47;97.09;98391.63;5019275;28;20030;-63
2022/12/06 10:17:49;;;;;;;7.13;2.53;;;;;;;4.76;98.44;98426.41;4991960;28;20133;-61
2022/12/06 10:20:40;;;;;;;3.75;1.48;;;;;;;4.82;97.21;98412.25;4998597;28;20493;-65
2022/12/06 10:23:17;;;;;;;6.82;1.67;;;;;;;4.96;93.73;98406.88;4999391;28;20076;-61
2022/12/06 10:25:58;;;;;;;4.60;1.40;;;;;;;5.00;93.94;98395.41;4997659;28;20025;-63
2022/12/06 10:28:32;;;;;;;4.45;1.50;;;;;;;5.14;93.68;98409.03;5003108;28;20534;-61
2022/12/06 10:31:21;;;;;;;2.72;0.90;;;;;;;5.19;86.92;98401.78;5002383;28;20088;-64
2022/12/06 10:33:57;;;;;;;2.45;0.80;;;;;;;5.37;81.70;98402.13;4997626;28;20161;-61
2022/12/06 10:36:41;;;;;;;4.88;1.90;;;;;;;5.05;83.05;98346.09;5020534;28;20444;-64
2022/12/06 10:39:17;;;;;;;7.30;3.00;;;;;;;5.41;81.66;98388.06;5017454;28;20018;-60
2022/12/06 10:41:58;;;;;;;5.85;2.20;;;;;;;5.39;81.58;98374.47;4998610;28;20031;-63
2022/12/06 10:44:45;;;;;;;3.72;1.20;;;;;;;5.19;79.91;98340.72;5001347;28;20030;-64
2022/12/06 10:47:24;;;;;;;3.95;1.30;;;;;;;5.43;81.71;98375.88;5001827;28;20042;-62
2022/12/06 10:49:52;;;;;;;4.82;1.50;;;;;;;5.19;81.87;98340.72;5017927;28;20060;-62
2022/12/06 10:52:39;;;;;;;4.15;1.55;;;;;;;5.24;84.63;98339.53;4997302;28;20679;-62
2022/12/06 10:55:07;;;;;;;4.70;1.42;;;;;;;5.40;82.84;98363.22;5006941;28;20038;-67
2022/12/06 10:57:42;;;;;;;3.97;1.55;;;;;;;5.38;81.22;98354.78;5013502;28;20037;-65
2022/12/06 11:00:20;;;;;;;4.00;1.60;;;;;;;5.48;83.38;98362.63;5011376;28;20080;-61
2022/12/06 11:02:58;;;;;;;3.42;1.23;;;;;;;5.16;85.43;98315.16;5008590;28;20116;-60
2022/12/06 11:05:29;;;;;;;3.90;1.60;;;;;;;5.54;87.49;98359.56;5008380;28;20436;-63
2022/12/06 11:08:13;;;;;;;4.70;1.83;;;;;;;5.49;88.19;98357.34;4991814;28;20060;-62
2022/12/06 11:10:41;;;;;;;4.35;1.40;;;;;;;5.61;88.87;98357.34;5004603;28;20176;-61
2022/12/06 11:13:16;;;;;;;4.65;1.80;;;;;;;5.49;88.43;98331.53;5012890;28;20038;-63
2022/12/06 11:15:48;;;;;;;5.88;1.65;;;;;;;5.61;88.27;98353.00;5000444;28;20037;-61
2022/12/06 11:18:15;;;;;;;5.28;2.03;;;;;;;5.73;87.58;98344.31;5018968;28;20049;-61
2022/12/06 11:20:47;;;;;;;4.43;1.77;;;;;;;5.77;87.76;98350.06;4987673;28;20048;-62
2022/12/06 11:23:21;;;;;;;4.43;1.35;;;;;;;5.61;81.28;98304.00;4985604;28;20125;-64
2022/12/06 11:26:01;;;;;;;3.42;1.23;;;;;;;5.94;84.64;98341.78;4997911;28;20018;-62
2022/12/06 11:28:33;;;;;;;;;;;;;;;6.03;85.62;98345.44;5020048;28;20025;-64
2022/12/06 11:30:58;;;;;;;3.38;1.30;;;;;;;6.03;84.58;98331.72;5005599;28;20426;-63
2022/12/06 11:33:33;;;;;;;3.30;1.10;;;;;;;5.77;82.00;98296.69;5021413;28;20034;-60
2022/12/06 11:36:01;;;;;;;3.60;1.30;;;;;;;6.09;82.74;98333.78;5001918;28;20042;-63
2022/12/06 11:38:26;;;;;;;3.30;1.10;;;;;;;6.06;84.24;98328.88;5006539;28;20129;-64
2022/12/06 11:40:52;;;;;;;3.80;1.17;;;;;;;6.16;81.65;98327.19;5003630;28;20112;-63
2022/12/06 11:43:25;;;;;;;2.28;0.90;;;;;;;6.12;78.36;98318.88;5021813;28;20054;-61
2022/12/06 11:45:51;;;;;;;2.92;0.90;;;;;;;6.15;73.34;98323.81;5019345;28;20056;-63
2022/12/06 11:48:22;;;;;;;2.70;0.90;;;;;;;6.26;73.44;98324.69;5009509;28;20489;-63
2022/12/06 11:50:49;;;;;;;2.15;0.82;;;;;;;6.31;72.54;98323.34;5014290;28;20030;-63
2022/12/06 11:53:29;;;;;;;3.10;1.00;;;;;;;6.34;71.80;98317.16;4996865;28;20684;-62
2022/12/06 11:55:57;;;;;;;2.85;1.08;;;;;;;6.35;75.07;98317.03;5021911;28;20034;-64
2022/12/06 11:58:34;;;;;;;2.80;0.98;;;;;;;6.48;76.07;98316.00;4992581;28;20119;-63
2022/12/06 12:01:13;;;;;;;3.13;0.95;;;;;;;6.39;73.84;98306.41;4997657;28;20034;-64
2022/12/06 12:03:41;;;;;;;2.80;0.90;;;;;;;6.10;76.22;98263.16;5007018;28;20099;-64
2022/12/06 12:06:18;;;;;;;2.83;1.02;;;;;;;6.46;77.39;98297.22;4993396;28;20034;-59
2022/12/06 12:08:59;;;;;;;2.55;0.70;;;;;;;6.54;75.21;98305.19;4987718;28;20096;-63